sensor_id;sensor_type;location;lat;lon;timestamp;P1;durP1;ratioP1;P2;durP2;ratioP2
51836;SDS011;38941;53.254;6.600;2023-04-06T00:00:41;10.93;;;5.28;;
51836;SDS011;38941;53.254;6.600;2023-04-06T00:02:43;12.63;;;4.82;;
51836;SDS011;38941;53.254;6.600;2023-04-06T00:04:43;7.95;;;5.10;;
51836;SDS011;38941;53.254;6.600;2023-04-06T00:06:46;7.60;;;5.05;;
51836;SDS011;38941;53.254;6.600;2023-04-06T00:08:49;8.52;;;5.00;;
51836;SDS011;38941;53.254;6.600;2023-04-06T00:10:51;9.07;;;5.43;;
51836;SDS011;38941;53.254;6.600;2023-04-06T00:14:57;8.20;;;4.85;;
51836;SDS011;38941;53.254;6.600;2023-04-06T00:17:00;7.95;;;4.72;;
51836;SDS011;38941;53.254;6.600;2023-04-06T00:19:01;9.50;;;5.20;;
51836;SDS011;38941;53.254;6.600;2023-04-06T00:21:02;10.85;;;5.07;;
51836;SDS011;38941;53.254;6.600;2023-04-06T00:23:03;14.10;;;5.70;;
51836;SDS011;38941;53.254;6.600;2023-04-06T00:25:13;9.75;;;5.20;;
51836;SDS011;38941;53.254;6.600;2023-04-06T00:27:21;10.85;;;5.20;;
51836;SDS011;38941;53.254;6.600;2023-04-06T00:29:23;7.95;;;4.80;;
51836;SDS011;38941;53.254;6.600;2023-04-06T00:31:24;10.95;;;5.47;;
51836;SDS011;38941;53.254;6.600;2023-04-06T00:33:34;11.27;;;5.30;;
51836;SDS011;38941;53.254;6.600;2023-04-06T00:35:38;11.00;;;5.57;;
51836;SDS011;38941;53.254;6.600;2023-04-06T00:37:39;11.05;;;5.82;;
51836;SDS011;38941;53.254;6.600;2023-04-06T00:39:42;12.15;;;5.68;;
51836;SDS011;38941;53.254;6.600;2023-04-06T00:41:45;9.07;;;4.38;;
51836;SDS011;38941;53.254;6.600;2023-04-06T00:43:50;10.25;;;5.10;;
51836;SDS011;38941;53.254;6.600;2023-04-06T00:45:53;9.85;;;5.22;;
51836;SDS011;38941;53.254;6.600;2023-04-06T00:47:55;8.48;;;5.40;;
51836;SDS011;38941;53.254;6.600;2023-04-06T00:50:02;10.18;;;5.70;;
51836;SDS011;38941;53.254;6.600;2023-04-06T00:52:04;11.38;;;5.53;;
51836;SDS011;38941;53.254;6.600;2023-04-06T00:54:07;9.38;;;5.15;;
51836;SDS011;38941;53.254;6.600;2023-04-06T00:56:08;11.30;;;5.85;;
51836;SDS011;38941;53.254;6.600;2023-04-06T00:58:16;8.02;;;4.90;;
51836;SDS011;38941;53.254;6.600;2023-04-06T01:00:25;9.00;;;5.00;;
51836;SDS011;38941;53.254;6.600;2023-04-06T01:02:26;9.57;;;5.22;;
51836;SDS011;38941;53.254;6.600;2023-04-06T01:04:30;12.10;;;5.35;;
51836;SDS011;38941;53.254;6.600;2023-04-06T01:06:38;8.95;;;5.82;;
51836;SDS011;38941;53.254;6.600;2023-04-06T01:08:39;8.60;;;5.40;;
51836;SDS011;38941;53.254;6.600;2023-04-06T01:10:49;9.75;;;5.63;;
51836;SDS011;38941;53.254;6.600;2023-04-06T01:12:52;9.77;;;5.57;;
51836;SDS011;38941;53.254;6.600;2023-04-06T01:14:55;8.30;;;5.15;;
51836;SDS011;38941;53.254;6.600;2023-04-06T01:16:57;11.52;;;5.55;;
51836;SDS011;38941;53.254;6.600;2023-04-06T01:19:09;8.77;;;4.72;;
51836;SDS011;38941;53.254;6.600;2023-04-06T01:21:12;12.50;;;5.57;;
51836;SDS011;38941;53.254;6.600;2023-04-06T01:23:15;9.52;;;5.25;;
51836;SDS011;38941;53.254;6.600;2023-04-06T01:25:17;8.85;;;5.10;;
51836;SDS011;38941;53.254;6.600;2023-04-06T01:27:18;10.27;;;5.57;;
51836;SDS011;38941;53.254;6.600;2023-04-06T01:29:19;8.45;;;5.05;;
51836;SDS011;38941;53.254;6.600;2023-04-06T01:31:24;11.18;;;5.43;;
51836;SDS011;38941;53.254;6.600;2023-04-06T01:33:27;9.60;;;5.30;;
51836;SDS011;38941;53.254;6.600;2023-04-06T01:35:29;10.48;;;5.43;;
51836;SDS011;38941;53.254;6.600;2023-04-06T01:37:31;9.95;;;5.18;;
51836;SDS011;38941;53.254;6.600;2023-04-06T01:39:42;10.35;;;5.60;;
51836;SDS011;38941;53.254;6.600;2023-04-06T01:41:43;9.45;;;5.50;;
51836;SDS011;38941;53.254;6.600;2023-04-06T01:43:45;9.63;;;5.57;;
51836;SDS011;38941;53.254;6.600;2023-04-06T01:45:52;8.82;;;5.35;;
51836;SDS011;38941;53.254;6.600;2023-04-06T01:47:53;11.07;;;5.45;;
51836;SDS011;38941;53.254;6.600;2023-04-06T01:49:54;10.55;;;5.50;;
51836;SDS011;38941;53.254;6.600;2023-04-06T01:51:57;9.45;;;5.18;;
51836;SDS011;38941;53.254;6.600;2023-04-06T01:53:58;12.13;;;5.65;;
51836;SDS011;38941;53.254;6.600;2023-04-06T01:55:59;10.40;;;6.20;;
51836;SDS011;38941;53.254;6.600;2023-04-06T01:58:00;9.75;;;6.20;;
51836;SDS011;38941;53.254;6.600;2023-04-06T02:00:04;11.52;;;6.68;;
51836;SDS011;38941;53.254;6.600;2023-04-06T02:02:07;9.55;;;5.95;;
51836;SDS011;38941;53.254;6.600;2023-04-06T02:04:08;11.43;;;6.80;;
51836;SDS011;38941;53.254;6.600;2023-04-06T02:06:11;8.80;;;5.93;;
51836;SDS011;38941;53.254;6.600;2023-04-06T02:08:18;10.38;;;5.25;;
51836;SDS011;38941;53.254;6.600;2023-04-06T02:10:20;9.52;;;5.93;;
51836;SDS011;38941;53.254;6.600;2023-04-06T02:12:21;11.10;;;6.22;;
51836;SDS011;38941;53.254;6.600;2023-04-06T02:14:27;10.43;;;5.80;;
51836;SDS011;38941;53.254;6.600;2023-04-06T02:16:29;9.93;;;5.85;;
51836;SDS011;38941;53.254;6.600;2023-04-06T02:18:32;10.57;;;5.80;;
51836;SDS011;38941;53.254;6.600;2023-04-06T02:20:39;12.40;;;7.35;;
51836;SDS011;38941;53.254;6.600;2023-04-06T02:24:47;11.98;;;6.10;;
51836;SDS011;38941;53.254;6.600;2023-04-06T02:26:49;12.80;;;6.22;;
51836;SDS011;38941;53.254;6.600;2023-04-06T02:28:53;14.00;;;6.22;;
51836;SDS011;38941;53.254;6.600;2023-04-06T02:31:00;10.55;;;6.28;;
51836;SDS011;38941;53.254;6.600;2023-04-06T02:33:02;11.02;;;6.40;;
51836;SDS011;38941;53.254;6.600;2023-04-06T02:35:03;11.13;;;6.22;;
51836;SDS011;38941;53.254;6.600;2023-04-06T02:37:04;10.38;;;6.45;;
51836;SDS011;38941;53.254;6.600;2023-04-06T02:39:09;11.60;;;6.00;;
51836;SDS011;38941;53.254;6.600;2023-04-06T02:43:21;10.13;;;6.90;;
51836;SDS011;38941;53.254;6.600;2023-04-06T02:45:23;11.20;;;6.95;;
51836;SDS011;38941;53.254;6.600;2023-04-06T02:47:25;11.68;;;6.50;;
51836;SDS011;38941;53.254;6.600;2023-04-06T02:49:26;14.10;;;6.53;;
51836;SDS011;38941;53.254;6.600;2023-04-06T02:51:30;10.60;;;6.45;;
51836;SDS011;38941;53.254;6.600;2023-04-06T02:53:38;12.23;;;6.82;;
51836;SDS011;38941;53.254;6.600;2023-04-06T02:57:46;12.50;;;6.80;;
51836;SDS011;38941;53.254;6.600;2023-04-06T02:59:46;12.05;;;7.07;;
51836;SDS011;38941;53.254;6.600;2023-04-06T03:01:49;12.65;;;6.60;;
51836;SDS011;38941;53.254;6.600;2023-04-06T03:03:52;12.73;;;6.90;;
51836;SDS011;38941;53.254;6.600;2023-04-06T03:05:53;15.02;;;7.13;;
51836;SDS011;38941;53.254;6.600;2023-04-06T03:07:56;13.77;;;6.93;;
51836;SDS011;38941;53.254;6.600;2023-04-06T03:10:00;12.23;;;6.78;;
51836;SDS011;38941;53.254;6.600;2023-04-06T03:12:01;13.15;;;6.43;;
51836;SDS011;38941;53.254;6.600;2023-04-06T03:14:02;10.48;;;6.80;;
51836;SDS011;38941;53.254;6.600;2023-04-06T03:16:10;15.05;;;7.43;;
51836;SDS011;38941;53.254;6.600;2023-04-06T03:18:12;12.07;;;7.40;;
51836;SDS011;38941;53.254;6.600;2023-04-06T03:20:15;10.80;;;6.07;;
51836;SDS011;38941;53.254;6.600;2023-04-06T03:22:16;13.98;;;7.18;;
51836;SDS011;38941;53.254;6.600;2023-04-06T03:24:18;12.18;;;7.20;;
51836;SDS011;38941;53.254;6.600;2023-04-06T03:26:28;14.10;;;6.90;;
51836;SDS011;38941;53.254;6.600;2023-04-06T03:28:29;10.88;;;6.30;;
51836;SDS011;38941;53.254;6.600;2023-04-06T03:30:31;17.08;;;7.22;;
51836;SDS011;38941;53.254;6.600;2023-04-06T03:32:32;13.35;;;6.38;;
51836;SDS011;38941;53.254;6.600;2023-04-06T03:34:33;13.10;;;7.05;;
51836;SDS011;38941;53.254;6.600;2023-04-06T03:36:36;13.50;;;8.18;;
51836;SDS011;38941;53.254;6.600;2023-04-06T03:38:37;10.85;;;6.05;;
51836;SDS011;38941;53.254;6.600;2023-04-06T03:40:40;13.25;;;7.60;;
51836;SDS011;38941;53.254;6.600;2023-04-06T03:42:45;13.30;;;6.15;;
51836;SDS011;38941;53.254;6.600;2023-04-06T03:44:46;10.88;;;6.70;;
51836;SDS011;38941;53.254;6.600;2023-04-06T03:46:46;13.20;;;6.82;;
51836;SDS011;38941;53.254;6.600;2023-04-06T03:48:47;13.38;;;7.15;;
51836;SDS011;38941;53.254;6.600;2023-04-06T03:50:49;12.35;;;7.75;;
51836;SDS011;38941;53.254;6.600;2023-04-06T03:52:53;12.60;;;6.95;;
51836;SDS011;38941;53.254;6.600;2023-04-06T03:54:55;11.13;;;7.00;;
51836;SDS011;38941;53.254;6.600;2023-04-06T03:56:56;15.27;;;6.80;;
51836;SDS011;38941;53.254;6.600;2023-04-06T03:58:57;11.82;;;6.53;;
51836;SDS011;38941;53.254;6.600;2023-04-06T04:01:08;14.82;;;7.85;;
51836;SDS011;38941;53.254;6.600;2023-04-06T04:03:15;13.18;;;7.80;;
51836;SDS011;38941;53.254;6.600;2023-04-06T04:05:20;16.20;;;7.38;;
51836;SDS011;38941;53.254;6.600;2023-04-06T04:07:34;12.30;;;7.50;;
51836;SDS011;38941;53.254;6.600;2023-04-06T04:09:36;15.07;;;7.60;;
51836;SDS011;38941;53.254;6.600;2023-04-06T04:11:44;16.88;;;7.05;;
51836;SDS011;38941;53.254;6.600;2023-04-06T04:13:49;11.68;;;7.75;;
51836;SDS011;38941;53.254;6.600;2023-04-06T04:15:53;12.52;;;6.88;;
51836;SDS011;38941;53.254;6.600;2023-04-06T04:17:55;13.02;;;7.13;;
51836;SDS011;38941;53.254;6.600;2023-04-06T04:19:58;13.82;;;6.88;;
51836;SDS011;38941;53.254;6.600;2023-04-06T04:24:05;14.05;;;6.70;;
51836;SDS011;38941;53.254;6.600;2023-04-06T04:26:07;20.08;;;7.80;;
51836;SDS011;38941;53.254;6.600;2023-04-06T04:28:13;10.40;;;6.53;;
51836;SDS011;38941;53.254;6.600;2023-04-06T04:30:14;13.63;;;6.68;;
51836;SDS011;38941;53.254;6.600;2023-04-06T04:32:15;14.93;;;7.05;;
51836;SDS011;38941;53.254;6.600;2023-04-06T04:34:17;13.50;;;7.70;;
51836;SDS011;38941;53.254;6.600;2023-04-06T04:36:31;11.45;;;6.95;;
51836;SDS011;38941;53.254;6.600;2023-04-06T04:38:33;13.52;;;6.40;;
51836;SDS011;38941;53.254;6.600;2023-04-06T04:40:35;12.00;;;5.93;;
51836;SDS011;38941;53.254;6.600;2023-04-06T04:42:42;13.50;;;6.80;;
51836;SDS011;38941;53.254;6.600;2023-04-06T04:44:45;10.10;;;6.53;;
51836;SDS011;38941;53.254;6.600;2023-04-06T04:46:48;13.82;;;7.38;;
51836;SDS011;38941;53.254;6.600;2023-04-06T04:48:49;10.40;;;6.47;;
51836;SDS011;38941;53.254;6.600;2023-04-06T04:50:56;12.00;;;6.47;;
51836;SDS011;38941;53.254;6.600;2023-04-06T05:10:11;11.55;;;6.63;;
51836;SDS011;38941;53.254;6.600;2023-04-06T05:12:14;12.05;;;6.00;;
51836;SDS011;38941;53.254;6.600;2023-04-06T05:14:20;11.55;;;5.63;;
51836;SDS011;38941;53.254;6.600;2023-04-06T05:16:33;14.15;;;7.50;;
51836;SDS011;38941;53.254;6.600;2023-04-06T05:18:40;13.23;;;6.10;;
51836;SDS011;38941;53.254;6.600;2023-04-06T05:20:44;13.68;;;7.05;;
51836;SDS011;38941;53.254;6.600;2023-04-06T05:22:48;14.40;;;6.40;;
51836;SDS011;38941;53.254;6.600;2023-04-06T05:24:52;15.75;;;6.88;;
51836;SDS011;38941;53.254;6.600;2023-04-06T05:26:55;12.88;;;7.18;;
51836;SDS011;38941;53.254;6.600;2023-04-06T05:28:56;12.13;;;6.50;;
51836;SDS011;38941;53.254;6.600;2023-04-06T05:31:01;19.05;;;7.32;;
51836;SDS011;38941;53.254;6.600;2023-04-06T05:33:06;11.15;;;6.30;;
51836;SDS011;38941;53.254;6.600;2023-04-06T05:35:09;13.00;;;7.07;;
51836;SDS011;38941;53.254;6.600;2023-04-06T05:37:11;12.45;;;6.40;;
51836;SDS011;38941;53.254;6.600;2023-04-06T05:39:18;14.05;;;6.95;;
51836;SDS011;38941;53.254;6.600;2023-04-06T05:41:19;14.48;;;6.95;;
51836;SDS011;38941;53.254;6.600;2023-04-06T05:43:21;11.45;;;6.38;;
51836;SDS011;38941;53.254;6.600;2023-04-06T05:45:22;11.88;;;7.10;;
51836;SDS011;38941;53.254;6.600;2023-04-06T05:47:43;14.93;;;7.10;;
51836;SDS011;38941;53.254;6.600;2023-04-06T05:49:57;11.30;;;6.43;;
51836;SDS011;38941;53.254;6.600;2023-04-06T05:52:11;10.63;;;6.53;;
51836;SDS011;38941;53.254;6.600;2023-04-06T05:54:17;12.27;;;6.28;;
51836;SDS011;38941;53.254;6.600;2023-04-06T05:56:19;11.98;;;6.00;;
51836;SDS011;38941;53.254;6.600;2023-04-06T05:58:23;9.57;;;5.63;;
51836;SDS011;38941;53.254;6.600;2023-04-06T06:00:25;11.50;;;5.57;;
51836;SDS011;38941;53.254;6.600;2023-04-06T06:04:34;9.63;;;5.78;;
51836;SDS011;38941;53.254;6.600;2023-04-06T06:06:36;10.35;;;5.90;;
51836;SDS011;38941;53.254;6.600;2023-04-06T06:08:37;9.75;;;5.75;;
51836;SDS011;38941;53.254;6.600;2023-04-06T06:10:39;13.32;;;6.70;;
51836;SDS011;38941;53.254;6.600;2023-04-06T06:12:41;12.82;;;5.95;;
51836;SDS011;38941;53.254;6.600;2023-04-06T06:14:43;10.20;;;5.53;;
51836;SDS011;38941;53.254;6.600;2023-04-06T06:18:56;12.02;;;5.28;;
51836;SDS011;38941;53.254;6.600;2023-04-06T06:20:58;8.20;;;5.10;;
51836;SDS011;38941;53.254;6.600;2023-04-06T06:23:00;9.98;;;5.38;;
51836;SDS011;38941;53.254;6.600;2023-04-06T06:25:01;10.13;;;5.32;;
51836;SDS011;38941;53.254;6.600;2023-04-06T06:27:08;12.93;;;5.50;;
51836;SDS011;38941;53.254;6.600;2023-04-06T06:29:11;10.45;;;5.45;;
51836;SDS011;38941;53.254;6.600;2023-04-06T06:31:24;9.20;;;5.30;;
51836;SDS011;38941;53.254;6.600;2023-04-06T06:33:27;11.60;;;6.07;;
51836;SDS011;38941;53.254;6.600;2023-04-06T06:35:34;13.20;;;5.78;;
51836;SDS011;38941;53.254;6.600;2023-04-06T06:39:44;12.68;;;5.68;;
51836;SDS011;38941;53.254;6.600;2023-04-06T06:41:45;12.40;;;5.68;;
51836;SDS011;38941;53.254;6.600;2023-04-06T06:43:52;9.32;;;5.95;;
51836;SDS011;38941;53.254;6.600;2023-04-06T06:45:54;9.15;;;5.63;;
51836;SDS011;38941;53.254;6.600;2023-04-06T06:47:56;12.02;;;5.95;;
51836;SDS011;38941;53.254;6.600;2023-04-06T06:49:56;15.32;;;5.80;;
51836;SDS011;38941;53.254;6.600;2023-04-06T06:51:59;10.15;;;5.72;;
51836;SDS011;38941;53.254;6.600;2023-04-06T06:54:00;10.98;;;5.68;;
51836;SDS011;38941;53.254;6.600;2023-04-06T06:56:08;12.05;;;7.00;;
51836;SDS011;38941;53.254;6.600;2023-04-06T06:58:10;11.23;;;6.40;;
51836;SDS011;38941;53.254;6.600;2023-04-06T07:00:16;10.27;;;5.28;;
51836;SDS011;38941;53.254;6.600;2023-04-06T07:02:18;19.65;;;7.07;;
51836;SDS011;38941;53.254;6.600;2023-04-06T07:04:25;12.25;;;5.68;;
51836;SDS011;38941;53.254;6.600;2023-04-06T07:06:26;12.02;;;6.53;;
51836;SDS011;38941;53.254;6.600;2023-04-06T07:08:26;13.98;;;5.97;;
51836;SDS011;38941;53.254;6.600;2023-04-06T07:10:28;8.95;;;5.35;;
51836;SDS011;38941;53.254;6.600;2023-04-06T07:12:33;8.63;;;5.63;;
51836;SDS011;38941;53.254;6.600;2023-04-06T07:14:35;11.55;;;6.40;;
51836;SDS011;38941;53.254;6.600;2023-04-06T07:16:37;12.27;;;5.32;;
51836;SDS011;38941;53.254;6.600;2023-04-06T07:18:39;10.55;;;6.97;;
51836;SDS011;38941;53.254;6.600;2023-04-06T07:20:41;10.52;;;5.75;;
51836;SDS011;38941;53.254;6.600;2023-04-06T07:22:43;11.85;;;6.38;;
51836;SDS011;38941;53.254;6.600;2023-04-06T07:24:49;10.68;;;5.93;;
51836;SDS011;38941;53.254;6.600;2023-04-06T07:26:52;10.18;;;5.45;;
51836;SDS011;38941;53.254;6.600;2023-04-06T07:28:52;10.70;;;5.95;;
51836;SDS011;38941;53.254;6.600;2023-04-06T07:30:53;11.00;;;6.55;;
51836;SDS011;38941;53.254;6.600;2023-04-06T07:32:55;11.00;;;5.65;;
51836;SDS011;38941;53.254;6.600;2023-04-06T07:34:58;11.27;;;5.28;;
51836;SDS011;38941;53.254;6.600;2023-04-06T07:36:59;10.65;;;5.22;;
51836;SDS011;38941;53.254;6.600;2023-04-06T07:39:00;10.20;;;6.30;;
51836;SDS011;38941;53.254;6.600;2023-04-06T07:41:01;15.00;;;6.07;;
51836;SDS011;38941;53.254;6.600;2023-04-06T07:43:10;11.30;;;5.68;;
51836;SDS011;38941;53.254;6.600;2023-04-06T07:45:11;10.23;;;5.88;;
51836;SDS011;38941;53.254;6.600;2023-04-06T07:47:12;14.88;;;6.65;;
51836;SDS011;38941;53.254;6.600;2023-04-06T07:49:13;10.30;;;6.00;;
51836;SDS011;38941;53.254;6.600;2023-04-06T07:51:13;10.60;;;5.55;;
51836;SDS011;38941;53.254;6.600;2023-04-06T07:53:16;9.57;;;5.97;;
51836;SDS011;38941;53.254;6.600;2023-04-06T07:55:17;10.63;;;5.05;;
51836;SDS011;38941;53.254;6.600;2023-04-06T07:57:18;8.50;;;5.93;;
51836;SDS011;38941;53.254;6.600;2023-04-06T07:59:19;12.23;;;5.30;;
51836;SDS011;38941;53.254;6.600;2023-04-06T08:01:20;13.57;;;5.75;;
51836;SDS011;38941;53.254;6.600;2023-04-06T08:03:20;9.73;;;5.65;;
51836;SDS011;38941;53.254;6.600;2023-04-06T08:05:25;10.55;;;5.50;;
51836;SDS011;38941;53.254;6.600;2023-04-06T08:07:26;10.70;;;5.75;;
51836;SDS011;38941;53.254;6.600;2023-04-06T08:09:27;12.30;;;6.28;;
51836;SDS011;38941;53.254;6.600;2023-04-06T08:11:30;12.50;;;6.40;;
51836;SDS011;38941;53.254;6.600;2023-04-06T08:13:32;10.05;;;5.63;;
51836;SDS011;38941;53.254;6.600;2023-04-06T08:15:34;13.98;;;6.10;;
51836;SDS011;38941;53.254;6.600;2023-04-06T08:17:35;11.55;;;5.43;;
51836;SDS011;38941;53.254;6.600;2023-04-06T08:19:36;10.18;;;6.03;;
51836;SDS011;38941;53.254;6.600;2023-04-06T08:21:47;10.35;;;5.57;;
51836;SDS011;38941;53.254;6.600;2023-04-06T08:23:48;10.02;;;5.70;;
51836;SDS011;38941;53.254;6.600;2023-04-06T08:25:48;9.68;;;5.18;;
51836;SDS011;38941;53.254;6.600;2023-04-06T08:27:50;13.10;;;5.78;;
51836;SDS011;38941;53.254;6.600;2023-04-06T08:29:51;8.18;;;4.72;;
51836;SDS011;38941;53.254;6.600;2023-04-06T08:31:52;13.18;;;5.60;;
51836;SDS011;38941;53.254;6.600;2023-04-06T08:33:53;11.13;;;6.25;;
51836;SDS011;38941;53.254;6.600;2023-04-06T08:36:06;13.05;;;5.78;;
51836;SDS011;38941;53.254;6.600;2023-04-06T08:38:11;10.70;;;5.05;;
51836;SDS011;38941;53.254;6.600;2023-04-06T08:40:18;18.95;;;6.53;;
51836;SDS011;38941;53.254;6.600;2023-04-06T08:42:19;11.13;;;6.40;;
51836;SDS011;38941;53.254;6.600;2023-04-06T08:44:21;10.48;;;5.32;;
51836;SDS011;38941;53.254;6.600;2023-04-06T08:46:24;12.45;;;6.20;;
51836;SDS011;38941;53.254;6.600;2023-04-06T08:48:35;17.77;;;6.50;;
51836;SDS011;38941;53.254;6.600;2023-04-06T08:50:36;10.85;;;5.40;;
51836;SDS011;38941;53.254;6.600;2023-04-06T08:52:38;13.50;;;6.82;;
51836;SDS011;38941;53.254;6.600;2023-04-06T08:54:43;9.93;;;5.90;;
51836;SDS011;38941;53.254;6.600;2023-04-06T08:56:45;13.27;;;6.28;;
51836;SDS011;38941;53.254;6.600;2023-04-06T08:58:48;10.85;;;5.38;;
51836;SDS011;38941;53.254;6.600;2023-04-06T09:00:50;12.80;;;6.70;;
51836;SDS011;38941;53.254;6.600;2023-04-06T09:02:54;12.07;;;6.07;;
51836;SDS011;38941;53.254;6.600;2023-04-06T09:04:57;12.50;;;6.60;;
51836;SDS011;38941;53.254;6.600;2023-04-06T09:06:59;12.40;;;5.28;;
51836;SDS011;38941;53.254;6.600;2023-04-06T09:09:02;13.05;;;6.93;;
51836;SDS011;38941;53.254;6.600;2023-04-06T09:11:05;14.70;;;5.90;;
51836;SDS011;38941;53.254;6.600;2023-04-06T09:13:08;12.13;;;7.45;;
51836;SDS011;38941;53.254;6.600;2023-04-06T09:15:17;11.18;;;5.93;;
51836;SDS011;38941;53.254;6.600;2023-04-06T09:17:20;14.18;;;5.68;;
51836;SDS011;38941;53.254;6.600;2023-04-06T09:19:24;10.95;;;6.00;;
51836;SDS011;38941;53.254;6.600;2023-04-06T09:21:28;11.73;;;5.72;;
51836;SDS011;38941;53.254;6.600;2023-04-06T09:23:30;13.40;;;6.30;;
51836;SDS011;38941;53.254;6.600;2023-04-06T09:25:32;10.50;;;6.25;;
51836;SDS011;38941;53.254;6.600;2023-04-06T09:27:34;10.77;;;6.38;;
51836;SDS011;38941;53.254;6.600;2023-04-06T09:29:36;10.25;;;6.00;;
51836;SDS011;38941;53.254;6.600;2023-04-06T09:31:37;10.65;;;6.43;;
51836;SDS011;38941;53.254;6.600;2023-04-06T09:33:39;9.43;;;5.70;;
51836;SDS011;38941;53.254;6.600;2023-04-06T09:35:48;13.02;;;6.15;;
51836;SDS011;38941;53.254;6.600;2023-04-06T09:37:58;9.10;;;5.85;;
51836;SDS011;38941;53.254;6.600;2023-04-06T09:40:04;10.13;;;5.63;;
51836;SDS011;38941;53.254;6.600;2023-04-06T09:42:07;12.52;;;6.82;;
51836;SDS011;38941;53.254;6.600;2023-04-06T09:44:10;10.05;;;5.60;;
51836;SDS011;38941;53.254;6.600;2023-04-06T09:46:12;11.02;;;6.13;;
51836;SDS011;38941;53.254;6.600;2023-04-06T09:48:15;14.02;;;6.28;;
51836;SDS011;38941;53.254;6.600;2023-04-06T09:50:16;13.57;;;6.28;;
51836;SDS011;38941;53.254;6.600;2023-04-06T09:52:18;9.10;;;5.75;;
51836;SDS011;38941;53.254;6.600;2023-04-06T09:54:21;12.35;;;6.82;;
51836;SDS011;38941;53.254;6.600;2023-04-06T09:56:23;10.27;;;6.60;;
51836;SDS011;38941;53.254;6.600;2023-04-06T09:58:28;10.32;;;6.65;;
51836;SDS011;38941;53.254;6.600;2023-04-06T10:06:54;13.00;;;6.93;;
51836;SDS011;38941;53.254;6.600;2023-04-06T10:08:56;20.60;;;7.78;;
51836;SDS011;38941;53.254;6.600;2023-04-06T10:10:57;10.25;;;6.15;;
51836;SDS011;38941;53.254;6.600;2023-04-06T10:13:03;11.13;;;6.70;;
51836;SDS011;38941;53.254;6.600;2023-04-06T10:15:06;12.63;;;6.85;;
51836;SDS011;38941;53.254;6.600;2023-04-06T10:17:22;11.65;;;7.65;;
51836;SDS011;38941;53.254;6.600;2023-04-06T10:19:27;9.73;;;6.30;;
51836;SDS011;38941;53.254;6.600;2023-04-06T10:21:32;11.23;;;6.93;;
51836;SDS011;38941;53.254;6.600;2023-04-06T10:25:55;12.88;;;7.43;;
51836;SDS011;38941;53.254;6.600;2023-04-06T10:30:08;23.85;;;7.85;;
51836;SDS011;38941;53.254;6.600;2023-04-06T10:32:11;15.18;;;8.13;;
51836;SDS011;38941;53.254;6.600;2023-04-06T10:34:12;14.82;;;8.57;;
51836;SDS011;38941;53.254;6.600;2023-04-06T10:36:25;17.42;;;7.50;;
51836;SDS011;38941;53.254;6.600;2023-04-06T10:38:35;16.20;;;7.97;;
51836;SDS011;38941;53.254;6.600;2023-04-06T10:40:38;14.20;;;7.30;;
51836;SDS011;38941;53.254;6.600;2023-04-06T10:42:39;12.70;;;6.95;;
51836;SDS011;38941;53.254;6.600;2023-04-06T10:44:43;13.52;;;7.85;;
51836;SDS011;38941;53.254;6.600;2023-04-06T10:46:56;12.35;;;7.88;;
51836;SDS011;38941;53.254;6.600;2023-04-06T10:48:58;18.75;;;9.20;;
51836;SDS011;38941;53.254;6.600;2023-04-06T10:51:11;14.77;;;8.25;;
51836;SDS011;38941;53.254;6.600;2023-04-06T10:53:35;19.00;;;8.20;;
51836;SDS011;38941;53.254;6.600;2023-04-06T10:55:40;15.43;;;8.55;;
51836;SDS011;38941;53.254;6.600;2023-04-06T10:57:45;16.92;;;9.05;;
51836;SDS011;38941;53.254;6.600;2023-04-06T10:59:52;14.85;;;8.68;;
51836;SDS011;38941;53.254;6.600;2023-04-06T11:01:54;20.20;;;10.02;;
51836;SDS011;38941;53.254;6.600;2023-04-06T11:03:57;19.58;;;9.57;;
51836;SDS011;38941;53.254;6.600;2023-04-06T11:06:01;18.70;;;10.00;;
51836;SDS011;38941;53.254;6.600;2023-04-06T11:08:02;16.42;;;8.88;;
51836;SDS011;38941;53.254;6.600;2023-04-06T11:10:03;16.67;;;9.13;;
51836;SDS011;38941;53.254;6.600;2023-04-06T11:12:05;17.08;;;8.52;;
51836;SDS011;38941;53.254;6.600;2023-04-06T11:14:09;17.00;;;8.80;;
51836;SDS011;38941;53.254;6.600;2023-04-06T11:16:14;22.73;;;9.10;;
51836;SDS011;38941;53.254;6.600;2023-04-06T11:18:18;16.25;;;8.80;;
51836;SDS011;38941;53.254;6.600;2023-04-06T11:20:19;18.63;;;8.65;;
51836;SDS011;38941;53.254;6.600;2023-04-06T11:22:21;20.50;;;10.13;;
51836;SDS011;38941;53.254;6.600;2023-04-06T11:24:24;21.67;;;10.60;;
51836;SDS011;38941;53.254;6.600;2023-04-06T11:26:31;18.50;;;10.32;;
51836;SDS011;38941;53.254;6.600;2023-04-06T11:28:37;20.55;;;9.90;;
51836;SDS011;38941;53.254;6.600;2023-04-06T11:30:40;18.80;;;10.13;;
51836;SDS011;38941;53.254;6.600;2023-04-06T11:32:48;18.63;;;11.18;;
51836;SDS011;38941;53.254;6.600;2023-04-06T11:34:51;23.77;;;11.82;;
51836;SDS011;38941;53.254;6.600;2023-04-06T11:36:56;22.25;;;13.23;;
51836;SDS011;38941;53.254;6.600;2023-04-06T11:39:00;25.25;;;13.35;;
51836;SDS011;38941;53.254;6.600;2023-04-06T11:41:10;23.75;;;14.13;;
51836;SDS011;38941;53.254;6.600;2023-04-06T11:43:11;25.50;;;13.55;;
51836;SDS011;38941;53.254;6.600;2023-04-06T11:45:14;26.98;;;15.02;;
51836;SDS011;38941;53.254;6.600;2023-04-06T11:47:16;31.17;;;13.02;;
51836;SDS011;38941;53.254;6.600;2023-04-06T11:49:19;27.27;;;14.25;;
51836;SDS011;38941;53.254;6.600;2023-04-06T11:51:21;25.70;;;13.27;;
51836;SDS011;38941;53.254;6.600;2023-04-06T11:53:23;25.48;;;14.27;;
51836;SDS011;38941;53.254;6.600;2023-04-06T11:55:25;26.73;;;13.82;;
51836;SDS011;38941;53.254;6.600;2023-04-06T11:57:25;27.45;;;13.65;;
51836;SDS011;38941;53.254;6.600;2023-04-06T11:59:28;27.88;;;13.93;;
51836;SDS011;38941;53.254;6.600;2023-04-06T12:01:29;23.38;;;14.25;;
51836;SDS011;38941;53.254;6.600;2023-04-06T12:03:32;27.83;;;14.30;;
51836;SDS011;38941;53.254;6.600;2023-04-06T12:05:33;26.80;;;14.02;;
51836;SDS011;38941;53.254;6.600;2023-04-06T12:07:35;26.02;;;14.13;;
51836;SDS011;38941;53.254;6.600;2023-04-06T12:09:37;27.27;;;14.30;;
51836;SDS011;38941;53.254;6.600;2023-04-06T12:11:38;25.70;;;14.20;;
51836;SDS011;38941;53.254;6.600;2023-04-06T12:13:40;25.10;;;14.30;;
51836;SDS011;38941;53.254;6.600;2023-04-06T12:15:41;24.90;;;13.90;;
51836;SDS011;38941;53.254;6.600;2023-04-06T12:17:43;26.95;;;14.77;;
51836;SDS011;38941;53.254;6.600;2023-04-06T12:19:44;28.63;;;14.93;;
51836;SDS011;38941;53.254;6.600;2023-04-06T12:21:44;25.48;;;14.32;;
51836;SDS011;38941;53.254;6.600;2023-04-06T12:23:45;27.60;;;14.80;;
51836;SDS011;38941;53.254;6.600;2023-04-06T12:25:46;28.00;;;14.15;;
51836;SDS011;38941;53.254;6.600;2023-04-06T12:27:47;23.00;;;12.82;;
51836;SDS011;38941;53.254;6.600;2023-04-06T12:29:48;25.45;;;13.80;;
51836;SDS011;38941;53.254;6.600;2023-04-06T12:31:49;24.15;;;13.32;;
51836;SDS011;38941;53.254;6.600;2023-04-06T12:33:50;25.15;;;13.90;;
51836;SDS011;38941;53.254;6.600;2023-04-06T12:35:53;23.08;;;14.60;;
51836;SDS011;38941;53.254;6.600;2023-04-06T12:37:54;25.92;;;13.35;;
51836;SDS011;38941;53.254;6.600;2023-04-06T12:39:57;25.33;;;14.52;;
51836;SDS011;38941;53.254;6.600;2023-04-06T12:41:58;23.10;;;12.23;;
51836;SDS011;38941;53.254;6.600;2023-04-06T12:43:59;26.90;;;14.38;;
51836;SDS011;38941;53.254;6.600;2023-04-06T12:46:00;27.60;;;12.95;;
51836;SDS011;38941;53.254;6.600;2023-04-06T12:48:02;28.17;;;12.55;;
51836;SDS011;38941;53.254;6.600;2023-04-06T12:50:05;24.75;;;13.25;;
51836;SDS011;38941;53.254;6.600;2023-04-06T12:52:07;24.13;;;13.73;;
51836;SDS011;38941;53.254;6.600;2023-04-06T12:54:08;31.33;;;13.45;;
51836;SDS011;38941;53.254;6.600;2023-04-06T12:56:12;25.25;;;14.40;;
51836;SDS011;38941;53.254;6.600;2023-04-06T12:58:15;24.52;;;13.50;;